Time;durP1;ratioP1;P1;durP2;ratioP2;P2;SDS_P1;SDS_P2;PMS_P1;PMS_P2;Temp;Humidity;BMP_temperature;BMP_pressure;BME280_temperature;BME280_humidity;BME280_pressure;Samples;Min_cycle;Max_cycle;Signal;HPM_P1;HPM_P2
2023/01/27 00:00:34;;;;;;;11.27;2.80;;;10.90;92.90;;;;;;5072696;28;20029;-59
2023/01/27 00:03:00;;;;;;;14.23;2.28;;;11.00;92.90;;;;;;5072437;28;20028;-64
2023/01/27 00:05:25;;;;;;;13.27;2.70;;;10.90;92.80;;;;;;5072340;28;20030;-59
2023/01/27 00:07:51;;;;;;;11.25;2.10;;;10.90;93.00;;;;;;5072280;28;20024;-59
2023/01/27 00:10:18;;;;;;;12.48;2.38;;;10.90;93.10;;;;;;5072598;28;20100;-62
2023/01/27 00:15:33;;;;;;;9.50;2.25;;;10.90;93.10;;;;;;5073397;28;20044;-60
2023/01/27 00:17:58;;;;;;;14.25;3.20;;;10.90;93.10;;;;;;5076527;28;20024;-60
2023/01/27 00:26:10;;;;;;;12.35;3.22;;;10.90;93.30;;;;;;5076520;28;20043;-59
2023/01/27 00:28:39;;;;;;;11.18;2.40;;;10.90;93.30;;;;;;5075976;28;20021;-63
2023/01/27 00:34:00;;;;;;;13.13;2.85;;;10.90;93.50;;;;;;4994534;28;20508;-59
2023/01/27 00:36:28;;;;;;;10.80;2.75;;;10.80;93.50;;;;;;5049216;28;20435;-60
2023/01/27 00:38:54;;;;;;;12.77;2.65;;;10.80;93.50;;;;;;5076383;28;20043;-59
2023/01/27 00:41:20;;;;;;;19.67;2.90;;;10.80;93.70;;;;;;5075859;28;20453;-60
2023/01/27 00:43:51;;;;;;;13.50;2.70;;;10.80;93.60;;;;;;5075903;28;20021;-59
2023/01/27 00:46:18;;;;;;;13.45;2.75;;;10.80;93.70;;;;;;5075875;28;20067;-59
2023/01/27 00:48:44;;;;;;;20.23;3.55;;;10.90;93.70;;;;;;5075929;28;20024;-60
2023/01/27 00:51:12;;;;;;;15.75;2.70;;;10.90;93.60;;;;;;5076301;28;20024;-59
2023/01/27 00:53:37;;;;;;;13.90;2.63;;;10.90;93.60;;;;;;5075836;28;20373;-60
2023/01/27 00:56:03;;;;;;;13.88;3.45;;;10.80;93.70;;;;;;5075589;28;20103;-60
2023/01/27 00:58:29;;;;;;;13.18;2.97;;;10.80;93.70;;;;;;5075677;28;20099;-60
2023/01/27 01:00:58;;;;;;;14.75;2.47;;;10.80;93.80;;;;;;5072903;28;20386;-60
2023/01/27 01:03:24;;;;;;;10.38;2.63;;;10.80;93.80;;;;;;5064218;28;20025;-59
2023/01/27 01:05:50;;;;;;;14.95;2.30;;;10.80;93.80;;;;;;5053875;28;20029;-60
2023/01/27 01:08:15;;;;;;;13.95;2.80;;;10.90;93.90;;;;;;5054081;28;20021;-59
2023/01/27 01:10:41;;;;;;;17.10;3.35;;;10.80;93.80;;;;;;5055104;28;20025;-63
2023/01/27 01:13:08;;;;;;;14.50;2.45;;;10.80;93.70;;;;;;5055382;28;20064;-59
2023/01/27 01:15:35;;;;;;;8.55;2.20;;;10.80;93.80;;;;;;5055486;28;20044;-59
2023/01/27 01:18:03;;;;;;;15.98;3.08;;;10.80;93.70;;;;;;5055089;28;20355;-59
2023/01/27 01:20:28;;;;;;;16.20;2.92;;;10.80;93.80;;;;;;5055487;28;20029;-59
2023/01/27 01:22:54;;;;;;;9.68;2.70;;;10.80;93.80;;;;;;5055273;28;20025;-59
2023/01/27 01:25:19;;;;;;;13.70;2.63;;;10.80;93.90;;;;;;5055093;28;20379;-59
2023/01/27 01:27:45;;;;;;;12.77;2.53;;;10.80;93.80;;;;;;5036839;28;20064;-59
2023/01/27 01:30:11;;;;;;;10.70;2.28;;;10.70;93.70;;;;;;5055046;28;20493;-63
2023/01/27 01:32:37;;;;;;;13.85;2.65;;;10.80;93.80;;;;;;5055079;28;20108;-64
2023/01/27 01:35:03;;;;;;;11.90;2.30;;;10.80;93.80;;;;;;5054930;28;20179;-59
2023/01/27 01:37:28;;;;;;;15.82;2.90;;;10.80;93.80;;;;;;5055089;28;20479;-60
2023/01/27 01:39:54;;;;;;;12.68;2.38;;;10.80;93.70;;;;;;5054557;28;20478;-59
2023/01/27 01:42:19;;;;;;;12.82;2.63;;;10.70;93.80;;;;;;5054878;28;20083;-59
2023/01/27 01:44:45;;;;;;;11.38;1.90;;;10.70;93.80;;;;;;5054868;28;20021;-59
2023/01/27 01:47:17;;;;;;;8.25;1.80;;;10.70;93.80;;;;;;5054750;28;20491;-59
2023/01/27 01:49:45;;;;;;;12.23;1.98;;;10.70;93.90;;;;;;5054779;28;20021;-59
2023/01/27 01:52:18;;;;;;;11.85;1.85;;;10.80;93.70;;;;;;5054817;28;20435;-59
2023/01/27 01:54:48;;;;;;;8.68;2.08;;;10.80;93.60;;;;;;5036362;28;20029;-59
2023/01/27 01:57:27;;;;;;;14.70;2.47;;;10.70;93.60;;;;;;5054578;28;20099;-62
2023/01/27 02:00:00;;;;;;;7.13;1.75;;;10.70;93.50;;;;;;5036642;28;20033;-61
2023/01/27 02:02:26;;;;;;;8.57;2.00;;;10.70;93.20;;;;;;5054602;28;20470;-60
2023/01/27 02:05:15;;;;;;;11.70;2.22;;;10.70;93.20;;;;;;5054285;28;20082;-60
2023/01/27 02:07:50;;;;;;;16.00;2.45;;;10.70;93.00;;;;;;5054514;28;20029;-59
2023/01/27 02:10:16;;;;;;;12.50;2.60;;;10.70;93.00;;;;;;5054310;28;20021;-59
2023/01/27 02:12:41;;;;;;;13.45;2.05;;;10.70;93.00;;;;;;5054452;28;20094;-59
2023/01/27 02:15:08;;;;;;;9.90;2.13;;;10.70;93.00;;;;;;5054263;28;20125;-60
2023/01/27 02:17:34;;;;;;;11.43;1.85;;;10.60;93.00;;;;;;5054034;28;20044;-59
2023/01/27 02:20:24;;;;;;;9.50;1.70;;;10.70;92.90;;;;;;5054302;28;20036;-59
2023/01/27 02:23:14;;;;;;;8.77;1.92;;;10.70;92.70;;;;;;5054058;28;20104;-59
2023/01/27 02:25:43;;;;;;;13.23;2.65;;;10.70;92.90;;;;;;5053913;28;20033;-61
2023/01/27 02:28:08;;;;;;;9.63;1.90;;;10.70;92.90;;;;;;5054085;28;20021;-64
2023/01/27 02:30:34;;;;;;;12.88;2.00;;;10.70;92.90;;;;;;5054045;28;20032;-59
2023/01/27 02:32:59;;;;;;;8.80;1.70;;;10.60;92.90;;;;;;5054099;28;20025;-59
2023/01/27 02:35:40;;;;;;;12.23;1.95;;;10.60;92.90;;;;;;5053619;28;20098;-59
2023/01/27 02:38:06;;;;;;;10.52;2.22;;;10.70;92.80;;;;;;5052709;28;20029;-59
2023/01/27 02:40:33;;;;;;;7.93;1.90;;;10.60;92.80;;;;;;5053924;28;20033;-59
2023/01/27 02:42:59;;;;;;;8.77;1.40;;;10.60;92.90;;;;;;5053859;28;20095;-60
2023/01/27 02:45:25;;;;;;;10.52;2.05;;;10.60;93.00;;;;;;5053661;28;20152;-61
2023/01/27 02:47:50;;;;;;;10.73;2.33;;;10.60;93.00;;;;;;5053494;28;20013;-60
2023/01/27 02:50:16;;;;;;;11.23;1.92;;;10.60;92.90;;;;;;5053523;28;20550;-59
2023/01/27 02:52:42;;;;;;;12.20;2.45;;;10.60;92.90;;;;;;5053484;28;20032;-59
2023/01/27 02:55:08;;;;;;;9.15;1.77;;;10.60;93.00;;;;;;5053594;28;20033;-59
2023/01/27 02:57:34;;;;;;;9.60;1.90;;;10.60;93.20;;;;;;5053546;28;20021;-65
2023/01/27 02:59:59;;;;;;;7.50;1.50;;;10.60;93.00;;;;;;5053380;28;20147;-59
2023/01/27 03:02:29;;;;;;;9.50;2.08;;;10.60;93.00;;;;;;5053298;28;20087;-58
2023/01/27 03:04:56;;;;;;;5.20;1.60;;;10.50;93.00;;;;;;5053244;28;20052;-59
2023/01/27 03:07:21;;;;;;;6.90;1.95;;;10.50;93.00;;;;;;5053257;28;20425;-59
2023/01/27 03:09:47;;;;;;;5.03;1.95;;;10.60;92.90;;;;;;5053226;28;20535;-60
2023/01/27 03:12:18;;;;;;;10.70;2.65;;;10.50;92.90;;;;;;5053350;28;20100;-59
2023/01/27 03:20:12;;;;;;;9.77;2.42;;;10.50;93.30;;;;;;5053447;28;20090;-59
2023/01/27 03:22:38;;;;;;;8.35;1.60;;;10.50;93.20;;;;;;5052924;28;20017;-59
2023/01/27 03:25:04;;;;;;;8.35;1.92;;;10.50;93.10;;;;;;5053203;28;20375;-59
2023/01/27 03:27:29;;;;;;;8.27;1.90;;;10.50;93.00;;;;;;5053529;28;20428;-59
2023/01/27 03:29:55;;;;;;;5.05;1.13;;;10.50;92.90;;;;;;5052900;28;20032;-60
2023/01/27 03:32:22;;;;;;;6.10;1.45;;;10.50;92.60;;;;;;5035047;28;20036;-59
2023/01/27 03:34:48;;;;;;;7.43;1.70;;;10.50;92.60;;;;;;5052940;28;20033;-59
2023/01/27 03:48:11;;;;;;;7.50;1.90;;;10.40;92.40;;;;;;5052707;28;20437;-66
2023/01/27 03:50:40;;;;;;;4.85;1.45;;;10.30;92.50;;;;;;5052454;28;20166;-70
2023/01/27 03:53:06;;;;;;;7.13;1.75;;;10.40;92.30;;;;;;5052949;28;20119;-62
2023/01/27 03:55:35;;;;;;;7.68;1.75;;;10.40;92.30;;;;;;5052909;28;20115;-79
2023/01/27 03:58:18;;;;;;;9.27;2.20;;;10.40;92.30;;;;;;5052512;28;20070;-73
2023/01/27 04:00:46;;;;;;;7.78;1.83;;;10.30;92.50;;;;;;5052288;28;20025;-66
2023/01/27 04:08:43;;;;;;;7.40;1.88;;;10.30;92.50;;;;;;5052496;28;20110;-64
2023/01/27 04:13:53;;;;;;;8.75;2.72;;;10.40;92.60;;;;;;5052616;28;20497;-71
2023/01/27 04:16:18;;;;;;;5.57;2.42;;;10.40;92.50;;;;;;5052302;28;20025;-76
2023/01/27 04:18:45;;;;;;;7.03;2.55;;;10.30;92.40;;;;;;5051938;28;20291;-66
2023/01/27 04:21:12;;;;;;;6.25;2.05;;;10.30;92.30;;;;;;5052338;28;20108;-59
2023/01/27 04:23:38;;;;;;;5.90;2.30;;;10.30;92.30;;;;;;5052216;28;20530;-61
2023/01/27 04:26:04;;;;;;;8.57;2.58;;;10.30;92.20;;;;;;5052286;28;20136;-73
2023/01/27 04:28:29;;;;;;;6.53;2.97;;;10.20;92.10;;;;;;5052088;28;20032;-65
2023/01/27 04:30:57;;;;;;;10.10;3.03;;;10.10;92.30;;;;;;5052173;28;20025;-64
2023/01/27 04:33:22;;;;;;;6.13;2.83;;;10.20;92.20;;;;;;5051935;28;20522;-78
2023/01/27 04:35:50;;;;;;;10.00;3.97;;;10.10;92.40;;;;;;5034285;28;20051;-70
2023/01/27 04:38:15;;;;;;;7.88;3.22;;;10.20;92.30;;;;;;5051908;28;20100;-66
2023/01/27 04:40:42;;;;;;;8.60;3.45;;;10.20;92.30;;;;;;5052399;28;20053;-76
2023/01/27 04:43:07;;;;;;;11.68;3.83;;;10.20;92.40;;;;;;5052009;28;20021;-65
2023/01/27 04:45:33;;;;;;;6.35;3.63;;;10.20;92.60;;;;;;5052051;28;20520;-70
2023/01/27 04:47:58;;;;;;;9.63;4.93;;;10.20;92.60;;;;;;5051664;28;20017;-78
2023/01/27 04:50:24;;;;;;;8.57;4.43;;;10.20;92.60;;;;;;5052766;28;20036;-63
2023/01/27 04:52:49;;;;;;;10.55;5.10;;;10.10;92.60;;;;;;5051880;28;20029;-60
2023/01/27 04:55:15;;;;;;;9.20;5.78;;;10.20;92.60;;;;;;5051922;28;20029;-76
2023/01/27 04:57:40;;;;;;;11.45;6.25;;;10.10;92.50;;;;;;5051769;28;20466;-68
2023/01/27 05:00:07;;;;;;;12.32;6.18;;;10.00;92.50;;;;;;5052004;28;20041;-60
2023/01/27 05:02:32;;;;;;;9.07;6.15;;;10.00;92.60;;;;;;5054660;28;20017;-71
2023/01/27 05:04:58;;;;;;;9.40;5.53;;;10.00;92.40;;;;;;5055611;28;20040;-72
2023/01/27 05:07:23;;;;;;;12.38;4.63;;;10.00;92.40;;;;;;5055273;28;20029;-77
2023/01/27 05:09:49;;;;;;;8.43;5.10;;;10.00;92.40;;;;;;5055596;28;20252;-77
2023/01/27 05:12:14;;;;;;;12.00;5.60;;;10.00;92.30;;;;;;5055589;28;20088;-77
2023/01/27 05:14:40;;;;;;;12.25;6.10;;;10.00;92.30;;;;;;5055186;28;20037;-63
2023/01/27 05:17:05;;;;;;;10.57;5.25;;;10.00;92.40;;;;;;5055619;28;20017;-78
2023/01/27 05:19:31;;;;;;;10.85;5.22;;;10.00;92.40;;;;;;5055311;28;20048;-73
2023/01/27 05:21:57;;;;;;;10.00;5.90;;;9.90;92.40;;;;;;5055195;28;20096;-77
2023/01/27 05:24:22;;;;;;;9.68;6.28;;;9.90;92.50;;;;;;5055365;28;20381;-78
2023/01/27 05:26:48;;;;;;;11.68;7.18;;;10.00;92.50;;;;;;5055099;28;20079;-79
2023/01/27 05:29:13;;;;;;;9.52;7.03;;;9.90;92.60;;;;;;5055170;28;20104;-60
2023/01/27 05:31:39;;;;;;;8.88;5.78;;;10.00;92.50;;;;;;5054703;28;20017;-78
2023/01/27 05:34:04;;;;;;;10.23;6.32;;;10.00;92.40;;;;;;5055106;28;20032;-77
2023/01/27 05:36:30;;;;;;;7.35;5.38;;;9.90;92.40;;;;;;5055366;28;20044;-76
2023/01/27 05:38:57;;;;;;;10.57;5.82;;;9.90;92.20;;;;;;5054930;28;20033;-71
2023/01/27 05:41:23;;;;;;;7.95;5.47;;;9.90;92.20;;;;;;5055054;28;20078;-78
2023/01/27 05:43:54;;;;;;;8.73;5.97;;;9.90;92.30;;;;;;5054851;28;20025;-74
2023/01/27 05:46:25;;;;;;;9.27;5.55;;;9.90;92.20;;;;;;5054597;28;20090;-66
2023/01/27 05:48:53;;;;;;;6.80;5.15;;;9.80;92.40;;;;;;5036981;28;20394;-70
2023/01/27 05:51:20;;;;;;;7.63;5.72;;;9.80;92.50;;;;;;5055136;28;20024;-68
2023/01/27 05:53:46;;;;;;;9.18;5.85;;;9.70;92.50;;;;;;5054849;28;20044;-64
2023/01/27 05:56:14;;;;;;;11.93;7.05;;;9.80;92.60;;;;;;5054949;28;20478;-62
2023/01/27 05:58:40;;;;;;;13.40;7.70;;;9.70;92.60;;;;;;5053914;28;20048;-61
2023/01/27 06:01:18;;;;;;;9.55;7.35;;;9.80;92.70;;;;;;5057487;28;20596;-64
2023/01/27 06:03:45;;;;;;;12.18;7.00;;;9.70;92.70;;;;;;5071169;28;20082;-63
2023/01/27 06:06:12;;;;;;;8.98;6.80;;;9.70;92.70;;;;;;5073490;28;20120;-63
2023/01/27 06:08:38;;;;;;;18.63;7.88;;;9.70;92.70;;;;;;5073014;28;20496;-70
2023/01/27 06:11:04;;;;;;;10.13;6.53;;;9.60;92.50;;;;;;5074942;28;20028;-63
2023/01/27 06:13:30;;;;;;;8.98;6.57;;;9.50;92.10;;;;;;5073275;28;20035;-69
2023/01/27 06:15:56;;;;;;;8.15;6.57;;;9.50;92.30;;;;;;5073693;28;20031;-69
2023/01/27 06:18:23;;;;;;;8.38;6.22;;;9.50;92.40;;;;;;5074426;28;20443;-74
2023/01/27 06:20:48;;;;;;;9.60;7.50;;;9.50;92.30;;;;;;5074598;28;20033;-62
2023/01/27 06:23:15;;;;;;;10.43;7.97;;;9.50;92.30;;;;;;5074557;28;20086;-63
2023/01/27 06:25:43;;;;;;;10.18;7.57;;;9.40;92.30;;;;;;5073796;28;20036;-62
2023/01/27 06:28:10;;;;;;;9.73;7.63;;;9.50;92.30;;;;;;5073984;28;20030;-59
2023/01/27 06:30:37;;;;;;;12.75;8.73;;;9.50;92.30;;;;;;5073673;28;20056;-73
2023/01/27 06:33:04;;;;;;;12.73;8.93;;;9.50;92.40;;;;;;5073978;28;20024;-60
2023/01/27 06:35:30;;;;;;;12.45;8.60;;;9.50;92.30;;;;;;5073856;28;20103;-59
2023/01/27 06:38:00;;;;;;;10.63;8.38;;;9.50;92.40;;;;;;5073722;28;20529;-59
2023/01/27 06:40:29;;;;;;;11.88;8.55;;;9.50;92.30;;;;;;5073607;28;20578;-65
2023/01/27 06:42:54;;;;;;;11.18;9.32;;;9.50;92.30;;;;;;5073618;28;20091;-60
2023/01/27 06:45:20;;;;;;;11.75;8.80;;;9.50;92.50;;;;;;5073222;28;20112;-59
2023/01/27 06:47:52;;;;;;;11.10;9.40;;;9.50;92.40;;;;;;5055812;28;20020;-73
2023/01/27 06:50:17;;;;;;;11.98;8.98;;;9.50;92.40;;;;;;5073738;28;20024;-62
2023/01/27 06:52:43;;;;;;;14.10;10.70;;;9.40;92.60;;;;;;5077856;28;20366;-62
2023/01/27 06:55:09;;;;;;;13.75;11.18;;;9.50;92.50;;;;;;5070904;28;20040;-66
2023/01/27 06:57:34;;;;;;;17.00;11.40;;;9.40;92.60;;;;;;5062557;28;20079;-65
2023/01/27 07:00:00;;;;;;;14.40;11.65;;;9.50;92.60;;;;;;5061283;28;20021;-66
2023/01/27 07:02:26;;;;;;;15.35;11.15;;;9.50;92.70;;;;;;5072952;28;20115;-68
2023/01/27 07:04:51;;;;;;;16.15;12.23;;;9.40;92.80;;;;;;5072983;28;20370;-64
2023/01/27 07:07:17;;;;;;;16.10;11.60;;;9.40;92.60;;;;;;5072768;28;20428;-65
2023/01/27 07:09:42;;;;;;;14.93;11.10;;;9.40;92.80;;;;;;5071145;28;20440;-59
2023/01/27 07:12:08;;;;;;;16.80;11.80;;;9.30;92.70;;;;;;5063736;28;20037;-58
2023/01/27 07:14:33;;;;;;;14.50;11.98;;;9.30;92.80;;;;;;5066761;28;20086;-59
2023/01/27 07:16:59;;;;;;;15.80;13.20;;;9.40;92.60;;;;;;5065694;28;20012;-64
2023/01/27 07:19:24;;;;;;;16.40;12.00;;;9.40;92.50;;;;;;5060742;28;20237;-59
2023/01/27 07:21:50;;;;;;;13.88;11.90;;;9.30;92.50;;;;;;5065733;28;20089;-59
2023/01/27 07:24:15;;;;;;;13.25;11.65;;;9.30;92.70;;;;;;5064356;28;20086;-65
2023/01/27 07:26:42;;;;;;;15.95;12.63;;;9.30;92.80;;;;;;5067197;28;20029;-59
2023/01/27 07:29:08;;;;;;;16.92;12.50;;;9.40;92.70;;;;;;5070718;28;20418;-59
2023/01/27 07:31:33;;;;;;;18.88;13.32;;;9.40;92.70;;;;;;5077652;28;20118;-60
2023/01/27 07:33:59;;;;;;;18.85;12.68;;;9.40;92.60;;;;;;5069268;28;20032;-66
2023/01/27 07:36:24;;;;;;;15.45;12.80;;;9.30;92.70;;;;;;5068433;28;20141;-62
2023/01/27 07:38:50;;;;;;;18.13;13.70;;;9.30;92.70;;;;;;5068856;28;20106;-61
2023/01/27 07:41:16;;;;;;;14.93;13.30;;;9.30;92.60;;;;;;5071608;28;20025;-60
2023/01/27 07:43:42;;;;;;;17.55;14.43;;;9.30;92.70;;;;;;5074069;28;20020;-59
2023/01/27 07:46:07;;;;;;;16.05;12.00;;;9.30;92.80;;;;;;5071583;28;20385;-65
2023/01/27 07:48:33;;;;;;;14.18;11.48;;;9.30;92.70;;;;;;5070370;28;20020;-58
2023/01/27 07:50:59;;;;;;;19.95;12.30;;;9.30;92.70;;;;;;5069705;28;20032;-59
2023/01/27 07:53:24;;;;;;;12.80;10.52;;;9.30;92.60;;;;;;5072082;28;20056;-58
2023/01/27 07:55:50;;;;;;;16.60;11.13;;;9.30;92.70;;;;;;5071743;28;20040;-59
2023/01/27 07:58:15;;;;;;;13.80;11.25;;;9.30;92.60;;;;;;5072339;28;20062;-59
2023/01/27 08:00:41;;;;;;;12.73;11.25;;;9.30;92.60;;;;;;5071163;28;20032;-59
2023/01/27 08:03:12;;;;;;;12.48;10.93;;;9.30;92.50;;;;;;5070484;28;20043;-59
2023/01/27 08:05:38;;;;;;;14.20;10.25;;;9.30;92.50;;;;;;5069942;28;20083;-60
2023/01/27 08:08:04;;;;;;;13.05;9.40;;;9.20;92.70;;;;;;5075355;28;20044;-59
2023/01/27 08:10:30;;;;;;;12.27;10.43;;;9.30;92.50;;;;;;5068609;28;20036;-61
2023/01/27 08:12:55;;;;;;;11.75;9.82;;;9.30;92.50;;;;;;5066276;28;20443;-60
2023/01/27 08:15:21;;;;;;;12.10;9.45;;;9.30;92.50;;;;;;5065114;28;20068;-60
2023/01/27 08:17:53;;;;;;;12.90;10.10;;;9.30;92.50;;;;;;5069909;28;20067;-59
2023/01/27 08:20:18;;;;;;;11.68;10.32;;;9.30;92.60;;;;;;5069476;28;20021;-59
2023/01/27 08:22:44;;;;;;;13.85;10.18;;;9.20;92.50;;;;;;5068660;28;20036;-59
2023/01/27 08:25:09;;;;;;;12.05;10.52;;;9.30;92.70;;;;;;5065872;28;20035;-59
2023/01/27 08:27:35;;;;;;;13.52;10.40;;;9.30;92.80;;;;;;5069823;28;20067;-59
2023/01/27 08:30:00;;;;;;;12.25;10.05;;;9.30;92.70;;;;;;5072048;28;20024;-59
2023/01/27 08:32:26;;;;;;;12.85;10.32;;;9.30;92.60;;;;;;5069100;28;20056;-59
2023/01/27 08:34:53;;;;;;;10.95;9.73;;;9.30;92.80;;;;;;5078078;28;20067;-59
2023/01/27 08:37:18;;;;;;;11.77;10.10;;;9.20;92.70;;;;;;5073604;28;20041;-58
2023/01/27 08:39:44;;;;;;;11.02;9.93;;;9.20;92.80;;;;;;5074738;28;20028;-59
2023/01/27 08:42:09;;;;;;;12.63;10.20;;;9.20;92.80;;;;;;5086806;28;20508;-59
2023/01/27 08:44:35;;;;;;;12.23;10.75;;;9.20;92.80;;;;;;5084280;28;20048;-59
2023/01/27 08:47:00;;;;;;;10.93;9.82;;;9.20;92.90;;;;;;5088152;28;20028;-59
2023/01/27 08:49:26;;;;;;;11.38;9.07;;;9.30;92.80;;;;;;5083163;28;20113;-59
2023/01/27 08:51:51;;;;;;;12.05;9.98;;;9.30;92.80;;;;;;5073693;28;20027;-62
2023/01/27 08:54:18;;;;;;;13.02;9.93;;;9.30;92.90;;;;;;5076475;28;20048;-58
2023/01/27 08:56:44;;;;;;;15.80;9.50;;;9.30;92.80;;;;;;5073612;28;20031;-59
2023/01/27 08:59:09;;;;;;;11.73;9.18;;;9.30;92.80;;;;;;5072804;28;20029;-59
2023/01/27 09:01:35;;;;;;;11.18;8.50;;;9.20;92.70;;;;;;5072478;28;20052;-60
2023/01/27 09:04:00;;;;;;;10.10;8.63;;;9.20;92.90;;;;;;5072759;28;20103;-58
2023/01/27 09:06:26;;;;;;;10.05;8.63;;;9.20;92.80;;;;;;5076709;28;20103;-59
2023/01/27 09:09:10;;;;;;;10.90;8.80;;;9.30;92.70;;;;;;5072153;28;20128;-58
2023/01/27 09:11:41;;;;;;;10.85;8.18;;;9.30;92.80;;;;;;5072673;28;20036;-59
2023/01/27 09:14:06;;;;;;;10.95;8.60;;;9.30;92.80;;;;;;5083841;28;20024;-59
2023/01/27 09:16:32;;;;;;;9.00;6.93;;;9.30;92.80;;;;;;5074918;28;20058;-60
2023/01/27 09:18:58;;;;;;;8.38;7.45;;;9.30;92.70;;;;;;5068842;28;20458;-59
2023/01/27 09:21:24;;;;;;;10.90;7.97;;;9.30;92.70;;;;;;5069026;28;20073;-59
2023/01/27 09:23:50;;;;;;;11.85;8.07;;;9.30;92.70;;;;;;5063668;28;20029;-65
2023/01/27 09:26:16;;;;;;;10.52;9.43;;;9.30;92.70;;;;;;5068154;28;20036;-59
2023/01/27 09:28:42;;;;;;;8.98;8.05;;;9.30;92.80;;;;;;5071061;28;20028;-59
2023/01/27 09:31:08;;;;;;;10.30;8.10;;;9.40;92.80;;;;;;5068850;28;20055;-61
2023/01/27 09:33:34;;;;;;;10.55;8.63;;;9.40;93.10;;;;;;5070647;28;20033;-59
2023/01/27 09:36:14;;;;;;;8.95;8.05;;;9.30;92.80;;;;;;5074752;28;20044;-60
2023/01/27 09:38:52;;;;;;;8.40;7.07;;;9.40;92.70;;;;;;5072148;28;20020;-62
2023/01/27 09:41:46;;;;;;;11.73;8.63;;;9.40;92.70;;;;;;5064623;28;20029;-59
2023/01/27 09:44:33;;;;;;;9.02;8.10;;;9.40;92.60;;;;;;5071826;28;20024;-60
2023/01/27 09:47:05;;;;;;;9.55;7.57;;;9.40;92.60;;;;;;5067792;28;20032;-59
2023/01/27 09:49:48;;;;;;;8.88;7.60;;;9.40;92.40;;;;;;5068104;28;20025;-59
2023/01/27 09:52:39;;;;;;;8.88;7.20;;;9.40;92.40;;;;;;5069884;28;20062;-58
2023/01/27 09:55:18;;;;;;;8.63;7.10;;;9.40;92.50;;;;;;5063265;28;20043;-58
2023/01/27 09:58:02;;;;;;;8.25;7.32;;;9.40;92.60;;;;;;5071053;28;20024;-61
2023/01/27 10:00:52;;;;;;;8.40;6.95;;;9.40;92.50;;;;;;5034502;28;20554;-60
2023/01/27 10:03:29;;;;;;;8.07;6.90;;;9.50;92.30;;;;;;5069073;28;20043;-59
2023/01/27 10:06:24;;;;;;;8.48;6.47;;;9.40;92.40;;;;;;5069574;28;20071;-74
2023/01/27 10:08:49;;;;;;;8.65;6.70;;;9.50;92.10;;;;;;5062384;28;20098;-72
2023/01/27 10:11:34;;;;;;;9.10;6.57;;;9.40;92.10;;;;;;5068895;28;20063;-59
2023/01/27 10:14:37;;;;;;;7.10;5.85;;;9.50;92.00;;;;;;5060859;28;20020;-59
2023/01/27 10:17:23;;;;;;;8.35;5.63;;;9.50;91.90;;;;;;5070209;28;20032;-59
2023/01/27 10:19:56;;;;;;;5.93;4.80;;;9.50;91.80;;;;;;5069074;28;20033;-60
2023/01/27 10:22:49;;;;;;;5.65;3.92;;;9.50;91.80;;;;;;5068764;28;20082;-60
2023/01/27 10:25:17;;;;;;;5.25;3.55;;;9.50;91.60;;;;;;5070860;28;20036;-74
2023/01/27 10:27:47;;;;;;;4.65;4.20;;;9.60;91.50;;;;;;5056102;28;20078;-74
2023/01/27 10:30:34;;;;;;;5.47;4.13;;;9.60;91.50;;;;;;5080242;28;20013;-76
2023/01/27 10:33:08;;;;;;;5.55;4.07;;;9.60;91.50;;;;;;5079332;28;20016;-77
2023/01/27 10:35:57;;;;;;;4.63;3.67;;;9.60;91.50;;;;;;5070572;28;20031;-59
2023/01/27 10:38:54;;;;;;;5.95;3.95;;;9.70;91.10;;;;;;5080931;28;20024;-63
2023/01/27 10:41:53;;;;;;;4.90;3.65;;;9.60;91.30;;;;;;5069195;28;20020;-61
2023/01/27 10:44:55;;;;;;;4.72;3.95;;;9.60;91.40;;;;;;5070229;28;20021;-60
2023/01/27 10:47:48;;;;;;;4.40;3.90;;;9.60;91.20;;;;;;5070808;28;20056;-61
2023/01/27 10:50:35;;;;;;;4.50;3.22;;;9.60;91.30;;;;;;5067305;28;20031;-65
2023/01/27 10:53:25;;;;;;;4.40;3.85;;;9.60;91.20;;;;;;5071167;28;20032;-64
2023/01/27 10:56:00;;;;;;;4.53;3.90;;;9.60;91.20;;;;;;5054111;28;20058;-67
2023/01/27 10:58:51;;;;;;;5.22;3.65;;;9.70;91.10;;;;;;5073613;28;20500;-61
2023/01/27 11:01:24;;;;;;;3.88;3.47;;;9.60;91.10;;;;;;5070636;28;20036;-59
2023/01/27 11:03:56;;;;;;;3.92;3.53;;;9.60;91.20;;;;;;5067865;28;20036;-59
2023/01/27 11:06:26;;;;;;;4.07;3.67;;;9.60;91.10;;;;;;5056724;28;20027;-61
2023/01/27 11:08:58;;;;;;;4.13;3.20;;;9.70;91.00;;;;;;5082391;28;20032;-64
2023/01/27 11:14:23;;;;;;;3.38;3.05;;;9.70;91.20;;;;;;5067781;28;19970;-61
2023/01/27 11:17:02;;;;;;;4.38;3.63;;;9.60;91.40;;;;;;5058256;28;20386;-61
2023/01/27 11:19:32;;;;;;;4.15;3.75;;;9.70;91.40;;;;;;5067364;28;20048;-63
2023/01/27 11:21:58;;;;;;;5.38;3.97;;;9.60;91.40;;;;;;5067078;28;20036;-62
2023/01/27 11:24:46;;;;;;;5.05;3.97;;;9.60;91.50;;;;;;5043832;28;20028;-67
2023/01/27 11:27:35;;;;;;;6.15;3.83;;;9.70;91.40;;;;;;5069287;28;20028;-61
2023/01/27 11:30:11;;;;;;;4.38;3.47;;;9.70;91.20;;;;;;5064814;28;20036;-69
2023/01/27 11:32:59;;;;;;;4.25;3.67;;;9.80;91.10;;;;;;5069745;28;20040;-73
2023/01/27 11:35:25;;;;;;;4.80;3.83;;;9.70;91.20;;;;;;5066974;28;20037;-72
2023/01/27 11:37:52;;;;;;;3.70;3.40;;;9.70;91.30;;;;;;5067431;28;20036;-79
2023/01/27 11:40:24;;;;;;;4.45;4.05;;;9.70;91.30;;;;;;5070633;28;20537;-66
2023/01/27 11:42:50;;;;;;;4.88;3.83;;;9.70;91.30;;;;;;5064462;28;20508;-70
2023/01/27 11:45:19;;;;;;;3.67;3.38;;;9.70;92.10;;;;;;5067342;28;20024;-74
2023/01/27 11:47:47;;;;;;;5.10;3.47;;;9.80;91.80;;;;;;5049621;28;20020;-66
2023/01/27 11:50:19;;;;;;;3.53;3.22;;;9.80;91.40;;;;;;5046475;28;20063;-69
2023/01/27 11:52:49;;;;;;;4.60;3.72;;;9.80;91.20;;;;;;5063431;28;20020;-74
2023/01/27 11:55:15;;;;;;;3.53;3.05;;;9.80;91.10;;;;;;5069015;28;20042;-60
2023/01/27 11:57:45;;;;;;;4.07;2.92;;;9.80;91.10;;;;;;5070083;28;20020;-62
2023/01/27 12:00:20;;;;;;;5.18;3.42;;;9.80;91.50;;;;;;5060653;28;20020;-67
2023/01/27 12:03:10;;;;;;;3.33;3.03;;;9.80;91.00;;;;;;5067624;28;20099;-67
2023/01/27 12:05:42;;;;;;;6.15;3.65;;;9.90;90.90;;;;;;5067388;28;20039;-60
2023/01/27 12:08:08;;;;;;;5.00;2.80;;;9.90;91.10;;;;;;5068373;28;20430;-60
2023/01/27 12:10:34;;;;;;;3.28;2.97;;;9.80;91.10;;;;;;5069932;28;20563;-66
2023/01/27 12:13:20;;;;;;;3.47;2.97;;;9.80;91.20;;;;;;5068281;28;20025;-63
2023/01/27 12:15:55;;;;;;;3.58;2.53;;;9.80;91.10;;;;;;5068339;28;20040;-64
2023/01/27 12:18:22;;;;;;;2.97;2.67;;;9.80;91.20;;;;;;5067694;28;20042;-69
2023/01/27 12:20:58;;;;;;;4.70;3.28;;;9.90;90.70;;;;;;5069691;28;20016;-65
2023/01/27 12:23:30;;;;;;;3.30;2.97;;;9.90;91.00;;;;;;5068046;28;20359;-69
2023/01/27 12:26:05;;;;;;;6.53;3.50;;;9.90;90.80;;;;;;5066949;28;20028;-71
2023/01/27 12:28:41;;;;;;;3.17;2.80;;;9.90;90.80;;;;;;5065750;28;20055;-72
2023/01/27 12:31:08;;;;;;;3.33;2.65;;;9.90;90.90;;;;;;5066965;28;20432;-59
2023/01/27 12:33:37;;;;;;;3.22;2.92;;;9.90;91.00;;;;;;5065264;28;20043;-60
2023/01/27 12:36:15;;;;;;;5.72;3.00;;;10.00;90.70;;;;;;5067761;28;20489;-60
2023/01/27 12:38:55;;;;;;;4.55;2.97;;;10.00;90.60;;;;;;5069506;28;20032;-60
2023/01/27 12:41:36;;;;;;;4.28;3.20;;;9.90;90.60;;;;;;5070222;28;20249;-63
2023/01/27 12:44:39;;;;;;;5.22;2.60;;;10.00;90.60;;;;;;5067697;28;20013;-61
2023/01/27 12:47:22;;;;;;;3.10;2.72;;;10.00;90.70;;;;;;5065446;28;20424;-70
2023/01/27 12:49:47;;;;;;;2.70;2.50;;;9.90;90.60;;;;;;5066756;28;20032;-60
2023/01/27 12:52:19;;;;;;;3.47;2.92;;;10.00;90.40;;;;;;5070195;28;20028;-60
2023/01/27 12:54:45;;;;;;;4.00;2.53;;;10.00;90.40;;;;;;5069820;28;20028;-66
2023/01/27 12:57:17;;;;;;;3.75;2.55;;;10.00;90.50;;;;;;5067956;28;20029;-59
2023/01/27 12:59:56;;;;;;;;;;;10.00;90.60;;;;;;5070045;28;20102;-59
2023/01/27 13:02:24;;;;;;;3.15;2.67;;;10.00;90.60;;;;;;5056027;28;20262;-60
2023/01/27 13:05:00;;;;;;;4.22;2.92;;;10.00;90.50;;;;;;5069761;28;20466;-59
2023/01/27 13:07:36;;;;;;;2.92;2.63;;;10.00;90.60;;;;;;5068146;28;20116;-69
2023/01/27 13:10:05;;;;;;;4.22;3.20;;;10.00;90.60;;;;;;5063624;28;20024;-60
2023/01/27 13:12:45;;;;;;;4.15;3.20;;;10.00;90.60;;;;;;5069828;28;20035;-61
2023/01/27 13:15:16;;;;;;;3.25;2.95;;;10.00;90.50;;;;;;5061928;28;20032;-68
2023/01/27 13:18:08;;;;;;;3.03;2.72;;;9.90;90.60;;;;;;5068023;28;20079;-59
2023/01/27 13:20:44;;;;;;;5.13;3.00;;;10.00;90.60;;;;;;5060374;28;20452;-62
2023/01/27 13:23:21;;;;;;;2.80;2.60;;;10.00;90.50;;;;;;5067817;28;20070;-59
2023/01/27 13:26:21;;;;;;;4.20;3.10;;;10.00;90.70;;;;;;5070727;28;20489;-60
2023/01/27 13:28:57;;;;;;;3.40;2.97;;;10.00;90.60;;;;;;5040811;28;20170;-59
2023/01/27 13:31:51;;;;;;;3.58;2.58;;;10.00;90.60;;;;;;5073469;28;20103;-62
2023/01/27 13:34:42;;;;;;;2.70;2.50;;;10.00;90.70;;;;;;5060978;28;20045;-64
2023/01/27 13:37:20;;;;;;;5.03;2.45;;;9.90;90.70;;;;;;5070793;28;20032;-60
2023/01/27 13:39:58;;;;;;;4.38;2.20;;;10.00;90.60;;;;;;5070693;28;20063;-59